Time;durP1;ratioP1;P1;durP2;ratioP2;P2;SDS_P1;SDS_P2;PMS_P1;PMS_P2;Temp;Humidity;BMP_temperature;BMP_pressure;BME280_temperature;BME280_humidity;BME280_pressure;Samples;Min_cycle;Max_cycle;Signal;HPM_P1;HPM_P2
2022/07/01 00:01:19;;;;;;;14.30;12.83;;;14.20;99.90;;;;;;5036948;28;20785;-58
2022/07/01 00:03:49;;;;;;;15.93;14.23;;;14.20;99.90;;;;;;5036830;28;20463;-57
2022/07/01 00:06:21;;;;;;;17.80;14.80;;;14.20;99.90;;;;;;5037380;28;20437;-57
2022/07/01 00:08:48;;;;;;;19.00;15.70;;;14.20;99.90;;;;;;5037201;28;20795;-57
2022/07/01 00:11:16;;;;;;;20.70;15.50;;;14.10;99.90;;;;;;5036888;28;20525;-57
2022/07/01 00:13:44;;;;;;;17.97;14.03;;;14.10;99.90;;;;;;5036817;28;20442;-58
2022/07/01 00:16:11;;;;;;;16.83;14.53;;;14.20;99.90;;;;;;5036605;28;20496;-58
2022/07/01 00:18:39;;;;;;;16.53;14.83;;;14.20;99.90;;;;;;5037088;28;20438;-57
2022/07/01 00:21:07;;;;;;;16.50;14.07;;;14.20;99.90;;;;;;5036550;28;20444;-58
2022/07/01 00:23:36;;;;;;;17.47;13.60;;;14.20;99.90;;;;;;5036861;28;20441;-57
2022/07/01 00:26:03;;;;;;;17.07;15.33;;;14.20;29.40;;;;;;5036496;28;20467;-57
2022/07/01 00:28:30;;;;;;;15.00;13.47;;;14.20;99.90;;;;;;5036960;28;20442;-57
2022/07/01 00:30:58;;;;;;;16.80;14.30;;;14.20;1.00;;;;;;5037443;28;20738;-57
2022/07/01 00:33:28;;;;;;;17.33;15.27;;;14.10;1.00;;;;;;5040458;28;20437;-57
2022/07/01 00:35:55;;;;;;;14.93;13.37;;;14.10;99.90;;;;;;5040801;28;20761;-57
2022/07/01 00:38:22;;;;;;;17.90;16.00;;;14.10;1.00;;;;;;5040826;28;20828;-57
2022/07/01 00:40:55;;;;;;;18.17;15.80;;;14.10;25.30;;;;;;5040721;28;20469;-58
2022/07/01 00:43:25;;;;;;;16.17;14.47;;;14.20;99.90;;;;;;5040399;28;20463;-57
2022/07/01 00:45:53;;;;;;;16.80;15.00;;;14.20;2.40;;;;;;5040682;28;20471;-56
2022/07/01 00:48:22;;;;;;;14.33;12.60;;;14.20;1.00;;;;;;5040559;28;20516;-57
2022/07/01 00:50:50;;;;;;;12.70;10.87;;;14.20;99.90;;;;;;5040263;28;20880;-57
2022/07/01 00:53:18;;;;;;;11.90;10.50;;;14.10;1.00;;;;;;5039755;28;20478;-57
2022/07/01 00:55:45;;;;;;;10.13;9.07;;;14.00;99.90;;;;;;5040087;28;20466;-58
2022/07/01 00:58:14;;;;;;;14.17;11.30;;;14.00;1.00;;;;;;5039892;28;20702;-57
2022/07/01 01:00:41;;;;;;;12.27;10.50;;;13.90;1.00;;;;;;5040573;28;20481;-57
2022/07/01 01:03:11;;;;;;;13.27;11.90;;;13.90;31.90;;;;;;5039978;28;20899;-56
2022/07/01 01:05:39;;;;;;;13.30;11.20;;;13.90;1.00;;;;;;5040536;28;20466;-58
2022/07/01 01:08:09;;;;;;;10.97;9.90;;;14.00;1.00;;;;;;5040049;28;20517;-58
2022/07/01 01:10:38;;;;;;;14.00;11.63;;;14.00;99.90;;;;;;5040510;28;20503;-57
2022/07/01 01:13:05;;;;;;;13.13;11.47;;;14.00;99.90;;;;;;5039443;28;20458;-58
2022/07/01 01:15:34;;;;;;;12.47;11.00;;;14.00;1.00;;;;;;5040020;28;20748;-56
2022/07/01 01:18:03;;;;;;;14.10;12.60;;;13.90;99.90;;;;;;5039898;28;20937;-57
2022/07/01 01:20:34;;;;;;;13.90;12.50;;;14.00;1.00;;;;;;5039938;28;20466;-57
2022/07/01 01:23:01;;;;;;;12.10;10.90;;;14.10;99.90;;;;;;5039903;28;20473;-58
2022/07/01 01:25:28;;;;;;;13.07;11.70;;;14.10;79.90;;;;;;5040255;28;20467;-57
2022/07/01 01:27:58;;;;;;;11.50;10.33;;;14.20;1.00;;;;;;5039393;28;20440;-57
2022/07/01 01:30:26;;;;;;;11.70;10.50;;;14.10;5.70;;;;;;5040115;28;20753;-57
2022/07/01 01:32:53;;;;;;;11.27;10.17;;;14.10;99.90;;;;;;5039502;28;20744;-55
2022/07/01 01:35:22;;;;;;;10.93;9.90;;;14.10;1.00;;;;;;5039496;28;20499;-57
2022/07/01 01:37:51;;;;;;;11.83;9.30;;;14.10;99.90;;;;;;5039840;28;20951;-57
2022/07/01 01:40:21;;;;;;;11.10;9.57;;;14.10;99.90;;;;;;5039599;28;20503;-58
2022/07/01 01:42:48;;;;;;;11.30;10.10;;;14.10;1.00;;;;;;5038458;28;20466;-56
2022/07/01 01:45:15;;;;;;;11.53;10.10;;;14.00;1.00;;;;;;5038716;28;20864;-58
2022/07/01 01:47:42;;;;;;;14.27;10.70;;;14.00;1.00;;;;;;5039848;28;20887;-58
2022/07/01 01:50:12;;;;;;;10.80;9.40;;;14.00;1.00;;;;;;5039923;28;20459;-58
2022/07/01 01:52:42;;;;;;;10.10;9.10;;;14.00;1.00;;;;;;5040215;28;20555;-58
2022/07/01 01:55:15;;;;;;;12.03;9.90;;;14.00;59.00;;;;;;5040006;28;20490;-58
2022/07/01 01:57:42;;;;;;;11.30;10.20;;;14.10;98.00;;;;;;5039187;28;20476;-58
2022/07/01 02:00:11;;;;;;;10.10;9.13;;;14.10;3.80;;;;;;5039888;28;20438;-55
2022/07/01 02:02:38;;;;;;;12.23;10.00;;;14.10;1.00;;;;;;5040039;28;20802;-58
2022/07/01 02:05:10;;;;;;;11.00;9.90;;;14.10;1.00;;;;;;5039379;28;20967;-58
2022/07/01 02:07:37;;;;;;;12.37;9.30;;;14.00;1.00;;;;;;5039688;28;20562;-58
2022/07/01 02:10:07;;;;;;;11.80;10.00;;;14.10;1.00;;;;;;5039495;28;20459;-58
2022/07/01 02:12:36;;;;;;;13.97;10.90;;;14.00;1.00;;;;;;5039508;28;20480;-57
2022/07/01 02:15:03;;;;;;;12.40;9.50;;;14.00;99.90;;;;;;5038898;28;20469;-57
2022/07/01 02:17:33;;;;;;;12.73;9.90;;;13.90;99.90;;;;;;5038686;28;20494;-58
2022/07/01 02:20:04;;;;;;;11.93;10.50;;;13.90;99.90;;;;;;5039701;28;20757;-58
2022/07/01 02:22:31;;;;;;;12.90;10.10;;;13.90;99.90;;;;;;5038989;28;20493;-57
2022/07/01 02:24:59;;;;;;;13.80;10.50;;;14.00;99.90;;;;;;5038482;28;20441;-57
2022/07/01 02:27:29;;;;;;;12.10;9.40;;;14.00;99.90;;;;;;5038751;28;20440;-57
2022/07/01 02:29:58;;;;;;;12.70;10.80;;;13.90;99.90;;;;;;5038541;28;20463;-57
2022/07/01 02:32:29;;;;;;;15.83;12.50;;;13.90;99.90;;;;;;5038599;28;20469;-57
2022/07/01 02:34:57;;;;;;;15.63;11.80;;;14.00;99.90;;;;;;5037548;28;20459;-56
2022/07/01 02:37:24;;;;;;;13.60;11.30;;;14.00;99.90;;;;;;5037999;28;20494;-58
2022/07/01 02:39:51;;;;;;;12.80;9.40;;;13.90;99.90;;;;;;5038262;28;20467;-57
2022/07/01 02:42:26;;;;;;;12.30;11.00;;;13.90;99.90;;;;;;5038588;28;20469;-57
2022/07/01 02:45:00;;;;;;;12.23;10.50;;;13.90;99.90;;;;;;5037941;28;20474;-57
2022/07/01 02:47:32;;;;;;;11.73;10.53;;;14.00;99.90;;;;;;5037021;28;20454;-56
2022/07/01 02:49:59;;;;;;;13.70;9.87;;;14.10;99.90;;;;;;5038130;28;20805;-57
2022/07/01 02:52:26;;;;;;;13.00;10.00;;;14.10;99.90;;;;;;5037532;28;20434;-57
2022/07/01 02:54:57;;;;;;;12.17;9.87;;;14.00;99.90;;;;;;5036151;28;20774;-57
2022/07/01 02:57:28;;;;;;;11.10;10.00;;;14.00;99.90;;;;;;5036855;28;21004;-57
2022/07/01 02:59:57;;;;;;;12.37;11.07;;;14.10;99.90;;;;;;5037251;28;20477;-57
2022/07/01 03:02:26;;;;;;;13.87;11.10;;;14.00;99.90;;;;;;5036620;28;20438;-58
2022/07/01 03:04:54;;;;;;;10.90;9.80;;;13.90;99.90;;;;;;5037121;28;20927;-58
2022/07/01 03:07:22;;;;;;;13.07;11.67;;;13.90;99.90;;;;;;5036914;28;20879;-58
2022/07/01 03:09:49;;;;;;;12.57;10.47;;;13.90;99.90;;;;;;5036435;28;20433;-58
2022/07/01 03:12:27;;;;;;;11.90;10.70;;;13.90;99.90;;;;;;5036659;28;20870;-58
2022/07/01 03:14:55;;;;;;;13.00;10.83;;;13.90;99.90;;;;;;5036696;28;20539;-58
2022/07/01 03:17:22;;;;;;;13.20;11.53;;;13.80;99.90;;;;;;5036967;28;20950;-58
2022/07/01 03:19:52;;;;;;;11.97;10.77;;;13.80;99.90;;;;;;5037317;28;20835;-58
2022/07/01 03:22:21;;;;;;;11.30;10.10;;;13.80;99.90;;;;;;5037439;28;20508;-59
2022/07/01 03:24:52;;;;;;;13.20;10.40;;;13.80;99.90;;;;;;5038082;28;20470;-58
2022/07/01 03:27:20;;;;;;;12.77;10.60;;;13.80;99.90;;;;;;5037561;28;20502;-58
2022/07/01 03:29:48;;;;;;;12.67;11.40;;;13.90;99.90;;;;;;5037449;28;20505;-56
2022/07/01 03:32:15;;;;;;;16.97;11.70;;;13.90;99.90;;;;;;5037658;28;20471;-58
2022/07/01 03:34:45;;;;;;;12.50;10.20;;;13.90;99.90;;;;;;5037538;28;20463;-59
2022/07/01 03:37:17;;;;;;;14.50;10.80;;;14.00;99.90;;;;;;5037363;28;20610;-59
2022/07/01 03:39:45;;;;;;;14.23;12.40;;;13.90;99.90;;;;;;5036991;28;20507;-59
2022/07/01 03:42:12;;;;;;;12.00;10.70;;;14.00;99.90;;;;;;5037496;28;20548;-58
2022/07/01 03:44:44;;;;;;;12.80;11.40;;;13.90;99.90;;;;;;5037506;28;20935;-59
2022/07/01 03:47:11;;;;;;;12.07;10.87;;;13.90;72.50;;;;;;5036509;28;20463;-59
2022/07/01 03:49:38;;;;;;;14.27;10.50;;;13.80;35.30;;;;;;5036917;28;20463;-58
2022/07/01 03:52:06;;;;;;;14.27;10.67;;;13.80;76.40;;;;;;5037236;28;20447;-59
2022/07/01 03:54:37;;;;;;;11.43;10.33;;;13.80;32.10;;;;;;5037239;28;20437;-59
2022/07/01 03:57:07;;;;;;;12.10;11.00;;;13.90;26.40;;;;;;5036870;28;20522;-59
2022/07/01 03:59:36;;;;;;;12.27;10.97;;;13.90;17.10;;;;;;5037248;28;20471;-60
2022/07/01 04:02:05;;;;;;;12.53;10.80;;;13.80;15.90;;;;;;5036991;28;20467;-59
2022/07/01 04:04:38;;;;;;;11.73;9.43;;;13.90;24.60;;;;;;5037068;28;20446;-60
2022/07/01 04:07:07;;;;;;;12.80;10.43;;;13.80;10.00;;;;;;5039844;28;20459;-60
2022/07/01 04:09:37;;;;;;;12.20;10.73;;;13.90;19.40;;;;;;5041060;28;20483;-60
2022/07/01 04:12:07;;;;;;;12.43;10.87;;;13.90;22.40;;;;;;5041505;28;20471;-60
2022/07/01 04:14:34;;;;;;;12.27;10.30;;;13.90;39.00;;;;;;5041349;28;20467;-60
2022/07/01 04:17:02;;;;;;;12.80;10.57;;;13.90;50.50;;;;;;5040657;28;20497;-59
2022/07/01 04:19:30;;;;;;;12.20;10.90;;;14.00;35.40;;;;;;5041322;28;20462;-59
2022/07/01 04:24:43;;;;;;;11.87;10.60;;;13.90;99.90;;;;;;5040843;28;20493;-60
2022/07/01 04:27:11;;;;;;;11.77;10.20;;;13.90;99.90;;;;;;5040751;28;20554;-60
2022/07/01 04:29:41;;;;;;;11.87;10.50;;;13.90;99.90;;;;;;5040554;28;20474;-61
2022/07/01 04:32:10;;;;;;;10.80;9.80;;;13.90;99.90;;;;;;5040272;28;20439;-61
2022/07/01 04:34:39;;;;;;;10.17;9.27;;;13.90;99.90;;;;;;5041053;28;20506;-60
2022/07/01 04:37:07;;;;;;;11.53;9.20;;;13.90;99.90;;;;;;5040153;28;20494;-61
2022/07/01 04:39:34;;;;;;;11.40;9.03;;;13.90;99.90;;;;;;5040651;28;20445;-60
2022/07/01 04:42:02;;;;;;;13.17;10.40;;;13.90;99.90;;;;;;5040645;28;20444;-61
2022/07/01 04:44:31;;;;;;;10.07;8.83;;;14.00;99.90;;;;;;5040876;28;20513;-61
2022/07/01 04:47:04;;;;;;;11.30;9.17;;;14.00;99.90;;;;;;5040472;28;20876;-61
2022/07/01 04:49:32;;;;;;;10.83;9.70;;;13.90;99.90;;;;;;5040455;28;20495;-61
2022/07/01 04:52:00;;;;;;;11.23;9.83;;;13.90;99.90;;;;;;5040571;28;20473;-60
2022/07/01 04:54:28;;;;;;;11.70;9.47;;;13.90;99.90;;;;;;5040438;28;20441;-61
2022/07/01 04:56:55;;;;;;;10.47;9.37;;;13.90;99.90;;;;;;5039565;28;20491;-60
2022/07/01 04:59:34;;;;;;;9.70;8.67;;;13.90;99.90;;;;;;5040201;28;20520;-61
2022/07/01 05:02:01;;;;;;;20.60;9.53;;;13.90;99.90;;;;;;5039890;28;20463;-61
2022/07/01 05:04:29;;;;;;;11.40;8.90;;;13.90;99.90;;;;;;5039942;28;20775;-61
2022/07/01 05:06:56;;;;;;;9.30;8.37;;;13.90;99.90;;;;;;5040159;28;20912;-62
2022/07/01 05:09:23;;;;;;;9.97;7.80;;;13.90;91.80;;;;;;5039182;28;20478;-62
2022/07/01 05:11:53;;;;;;;10.43;8.97;;;14.00;99.90;;;;;;5039116;28;20463;-62
2022/07/01 05:14:20;;;;;;;10.80;8.97;;;14.00;99.90;;;;;;5039628;28;20471;-64
2022/07/01 05:16:52;;;;;;;8.97;7.70;;;14.20;48.40;;;;;;5038478;28;20565;-64
2022/07/01 05:22:09;;;;;;;10.77;8.60;;;14.30;1.00;;;;;;5038924;28;20438;-65
2022/07/01 05:24:36;;;;;;;11.33;8.20;;;14.30;1.00;;;;;;5039340;28;20467;-65
2022/07/01 05:27:06;;;;;;;8.40;7.33;;;14.20;1.00;;;;;;5038879;28;20495;-65
2022/07/01 05:29:34;;;;;;;11.43;8.90;;;14.30;1.00;;;;;;5038059;28;20846;-64
2022/07/01 05:32:04;;;;;;;12.47;8.83;;;14.30;1.00;;;;;;5039887;28;20463;-64
2022/07/01 05:34:31;;;;;;;10.87;9.00;;;14.40;1.00;;;;;;5039549;28;20485;-64
2022/07/01 05:36:58;;;;;;;10.10;8.20;;;14.50;1.00;;;;;;5039622;28;20442;-65
2022/07/01 05:39:28;;;;;;;9.63;8.80;;;14.40;1.00;;;;;;5039224;28;20429;-65
2022/07/01 05:41:56;;;;;;;9.03;8.23;;;14.30;1.00;;;;;;5039747;28;20464;-65
2022/07/01 05:44:25;;;;;;;11.90;9.40;;;14.30;1.00;;;;;;5039512;28;20459;-65
2022/07/01 05:46:53;;;;;;;10.47;9.03;;;14.30;1.00;;;;;;5039167;28;20463;-65
2022/07/01 05:49:22;;;;;;;14.00;9.70;;;14.20;1.00;;;;;;5039065;28;20462;-64
2022/07/01 05:51:49;;;;;;;9.80;8.90;;;14.30;1.00;;;;;;5039110;28;20757;-65
2022/07/01 05:54:16;;;;;;;10.73;9.80;;;14.20;1.00;;;;;;5039347;28;20465;-65
2022/07/01 05:56:43;;;;;;;10.83;8.57;;;14.20;1.00;;;;;;5038692;28;20433;-65
2022/07/01 05:59:14;;;;;;;9.70;8.70;;;14.20;1.00;;;;;;5039169;28;20947;-65
2022/07/01 06:01:43;;;;;;;9.73;8.57;;;14.30;1.00;;;;;;5039497;28;20521;-65
2022/07/01 06:04:13;;;;;;;11.50;8.80;;;14.20;1.00;;;;;;5039111;28;20467;-65
2022/07/01 06:06:45;;;;;;;10.33;8.90;;;14.30;1.00;;;;;;5038969;28;20467;-65
2022/07/01 06:09:12;;;;;;;10.53;9.27;;;14.40;1.00;;;;;;5033157;28;20472;-65
2022/07/01 06:11:39;;;;;;;16.13;10.03;;;14.50;1.00;;;;;;5018629;28;20514;-65
2022/07/01 06:14:11;;;;;;;12.27;9.83;;;14.40;1.00;;;;;;5018690;28;20474;-65
2022/07/01 06:16:38;;;;;;;24.90;12.27;;;14.50;1.00;;;;;;5018942;28;20558;-65
2022/07/01 06:19:07;;;;;;;11.30;10.20;;;14.50;1.00;;;;;;5019197;28;20496;-65
2022/07/01 06:21:34;;;;;;;23.00;11.80;;;14.30;1.00;;;;;;5019208;28;20785;-65
2022/07/01 06:24:02;;;;;;;11.97;10.73;;;14.30;1.00;;;;;;5018833;28;20884;-65
2022/07/01 06:26:30;;;;;;;12.67;10.90;;;14.40;1.00;;;;;;5018312;28;20900;-65
2022/07/01 06:28:57;;;;;;;13.00;10.87;;;14.40;1.00;;;;;;5018298;28;20904;-65
2022/07/01 06:31:28;;;;;;;12.67;10.23;;;14.50;1.00;;;;;;5019031;28;20897;-66
2022/07/01 06:34:00;;;;;;;12.93;11.27;;;14.50;1.00;;;;;;5018598;28;20859;-65
2022/07/01 06:36:30;;;;;;;11.73;10.63;;;14.50;1.00;;;;;;5019135;28;20467;-66
2022/07/01 06:38:58;;;;;;;12.20;11.10;;;14.60;1.00;;;;;;5018587;28;20546;-66
2022/07/01 06:41:30;;;;;;;12.27;10.83;;;14.60;1.00;;;;;;5018934;28;20568;-65
2022/07/01 06:44:02;;;;;;;16.97;11.53;;;14.50;1.00;;;;;;5018248;28;20494;-65
2022/07/01 06:46:30;;;;;;;12.43;11.13;;;14.40;1.00;;;;;;5027761;28;20490;-65
2022/07/01 06:48:58;;;;;;;12.70;11.57;;;14.40;1.00;;;;;;5038171;28;20771;-65
2022/07/01 06:51:26;;;;;;;11.97;10.87;;;14.50;1.00;;;;;;5037901;28;20884;-64
2022/07/01 06:53:57;;;;;;;11.10;10.20;;;14.60;1.00;;;;;;5038288;28;20467;-65
2022/07/01 06:56:24;;;;;;;11.97;10.77;;;14.60;1.00;;;;;;5057433;28;20466;-65
2022/07/01 06:58:55;;;;;;;12.27;10.77;;;14.60;1.00;;;;;;5057633;28;20502;-64
2022/07/01 07:01:26;;;;;;;11.47;10.27;;;14.60;1.00;;;;;;5058260;28;20540;-64
2022/07/01 07:03:54;;;;;;;11.10;10.00;;;14.80;1.00;;;;;;5056388;28;20462;-64
2022/07/01 07:06:21;;;;;;;12.00;10.10;;;14.90;1.00;;;;;;5058061;28;20750;-65
2022/07/01 07:08:49;;;;;;;10.17;9.37;;;15.10;1.00;;;;;;5057932;28;20508;-64
2022/07/01 07:11:24;;;;;;;10.47;9.40;;;15.30;1.00;;;;;;5057998;28;20480;-64
2022/07/01 07:13:54;;;;;;;11.43;10.43;;;15.50;1.00;;;;;;5057114;28;20472;-64
2022/07/01 07:16:26;;;;;;;10.30;9.40;;;15.60;1.00;;;;;;5057979;28;20537;-64
2022/07/01 07:18:54;;;;;;;10.33;9.00;;;15.60;1.00;;;;;;5057528;28;20497;-64
2022/07/01 07:21:22;;;;;;;9.60;8.80;;;15.80;1.00;;;;;;5057959;28;20459;-64
2022/07/01 07:23:51;;;;;;;8.50;7.80;;;15.90;1.00;;;;;;5057960;28;20560;-65
2022/07/01 07:26:18;;;;;;;8.77;7.87;;;16.10;99.90;;;;;;5057270;28;20561;-65
2022/07/01 07:28:46;;;;;;;9.33;8.10;;;16.20;99.90;;;;;;5057529;28;20480;-65
2022/07/01 07:31:13;;;;;;;7.57;6.70;;;16.20;99.90;;;;;;5057756;28;20466;-65
2022/07/01 07:33:42;;;;;;;8.60;7.23;;;16.20;99.90;;;;;;5057579;28;20468;-64
2022/07/01 07:36:12;;;;;;;6.60;6.10;;;16.40;99.90;;;;;;5057278;28;20871;-64
2022/07/01 07:38:41;;;;;;;7.80;7.00;;;16.70;99.90;;;;;;5056968;28;20503;-65
2022/07/01 07:41:09;;;;;;;9.60;6.90;;;16.60;99.90;;;;;;5057448;28;20472;-65
2022/07/01 07:43:36;;;;;;;9.80;6.43;;;16.40;99.90;;;;;;5056674;28;20890;-65
2022/07/01 07:46:06;;;;;;;9.03;7.40;;;16.50;99.90;;;;;;5057288;28;20465;-65
2022/07/01 07:48:33;;;;;;;10.07;7.50;;;16.50;99.90;;;;;;5056931;28;20465;-65
2022/07/01 07:51:02;;;;;;;9.17;8.27;;;16.50;99.90;;;;;;5047961;28;20787;-65
2022/07/01 07:53:32;;;;;;;8.23;7.40;;;16.30;99.90;;;;;;5036857;28;20466;-65
2022/07/01 07:56:02;;;;;;;8.97;8.07;;;16.10;99.90;;;;;;5037259;28;20757;-64
2022/07/01 07:58:34;;;;;;;9.20;8.30;;;16.10;99.90;;;;;;5034986;28;20502;-65
2022/07/01 08:01:01;;;;;;;9.83;8.17;;;16.00;99.90;;;;;;5037039;28;20467;-64
2022/07/01 08:03:28;;;;;;;10.93;9.83;;;15.80;99.90;;;;;;5036747;28;20501;-65
2022/07/01 08:06:00;;;;;;;12.50;8.50;;;15.90;99.90;;;;;;5036448;28;20761;-64
2022/07/01 08:08:31;;;;;;;11.70;7.37;;;16.00;99.90;;;;;;5035902;28;20466;-65
2022/07/01 08:11:01;;;;;;;9.10;6.93;;;16.10;99.90;;;;;;5037094;28;20758;-65
2022/07/01 08:13:32;;;;;;;11.70;6.30;;;16.30;99.90;;;;;;5036978;28;20888;-66
2022/07/01 08:15:59;;;;;;;7.73;6.40;;;16.20;99.90;;;;;;5037050;28;20467;-64
2022/07/01 08:18:27;;;;;;;7.03;6.43;;;16.40;99.90;;;;;;5036518;28;20491;-64
2022/07/01 08:20:54;;;;;;;7.53;5.73;;;16.70;99.90;;;;;;5035573;28;20797;-64
2022/07/01 08:23:25;;;;;;;5.77;5.23;;;17.20;99.90;;;;;;5036988;28;20471;-65
2022/07/01 08:25:53;;;;;;;7.87;4.70;;;17.60;99.90;;;;;;5036844;28;20498;-65
2022/07/01 08:28:20;;;;;;;6.90;5.50;;;17.80;99.90;;;;;;5036524;28;20462;-65
2022/07/01 08:30:53;;;;;;;5.97;4.97;;;18.00;99.90;;;;;;5036583;28;20470;-65
2022/07/01 08:33:23;;;;;;;6.37;5.33;;;18.40;99.90;;;;;;5037391;28;20467;-64
2022/07/01 08:35:51;;;;;;;6.60;4.57;;;18.60;99.90;;;;;;5036806;28;20771;-65
2022/07/01 08:38:21;;;;;;;5.03;4.53;;;19.10;99.90;;;;;;5036980;28;20553;-64
2022/07/01 08:40:48;;;;;;;5.70;4.13;;;19.80;99.90;;;;;;5036589;28;20552;-64
2022/07/01 08:43:17;;;;;;;6.27;4.50;;;20.70;99.90;;;;;;5036650;28;20467;-65
2022/07/01 08:45:44;;;;;;;4.93;4.43;;;20.40;99.90;;;;;;5035513;28;20467;-65
2022/07/01 08:48:11;;;;;;;7.20;4.37;;;20.10;99.90;;;;;;5036573;28;20469;-64
2022/07/01 08:50:42;;;;;;;6.73;4.00;;;20.00;99.90;;;;;;5035376;28;20462;-64
2022/07/01 08:53:11;;;;;;;10.63;4.73;;;21.00;99.90;;;;;;5036074;28;20499;-64
2022/07/01 08:58:22;;;;;;;4.33;3.90;;;21.30;99.90;;;;;;5017980;28;20845;-64
2022/07/01 09:00:53;;;;;;;4.97;3.73;;;21.30;99.90;;;;;;5018004;28;20474;-62
2022/07/01 09:03:22;;;;;;;4.30;3.90;;;21.30;99.90;;;;;;5018877;28;20893;-63
2022/07/01 09:05:58;;;;;;;5.60;3.93;;;21.00;99.90;;;;;;5019580;28;20761;-63
2022/07/01 09:08:31;;;;;;;7.57;4.20;;;21.50;99.90;;;;;;5019792;28;20463;-63
2022/07/01 09:11:12;;;;;;;5.00;4.10;;;21.80;99.90;;;;;;5034189;28;20542;-63
2022/07/01 09:13:43;;;;;;;9.03;3.50;;;21.20;99.90;;;;;;5037523;28;20915;-63
2022/07/01 09:16:15;;;;;;;6.10;3.23;;;20.80;99.90;;;;;;5039145;28;20437;-63
2022/07/01 09:19:05;;;;;;;5.00;4.30;;;20.40;99.90;;;;;;5037988;28;20490;-63
2022/07/01 09:21:32;;;;;;;7.50;3.67;;;20.10;99.90;;;;;;5037271;28;20463;-63
2022/07/01 09:24:05;;;;;;;6.23;4.30;;;19.90;99.90;;;;;;5037895;28;20470;-63
2022/07/01 09:26:32;;;;;;;4.17;3.50;;;20.20;99.90;;;;;;5038167;28;20463;-63
2022/07/01 09:29:05;;;;;;;3.57;3.20;;;20.50;99.90;;;;;;5038547;28;20463;-62
2022/07/01 09:31:48;;;;;;;4.77;3.67;;;20.30;99.90;;;;;;5037781;28;20459;-64
2022/07/01 09:34:15;;;;;;;6.50;3.80;;;20.20;99.90;;;;;;5019481;28;20892;-63
2022/07/01 09:36:55;;;;;;;3.60;3.07;;;20.50;99.90;;;;;;5018826;28;20464;-63
2022/07/01 09:39:22;;;;;;;4.60;3.70;;;20.70;99.90;;;;;;5019808;28;20847;-63
2022/07/01 09:41:50;;;;;;;4.30;3.53;;;20.90;99.90;;;;;;5019316;28;20460;-63
2022/07/01 09:44:19;;;;;;;4.47;3.70;;;20.80;99.90;;;;;;5019504;28;20892;-62
2022/07/01 09:46:54;;;;;;;5.00;3.97;;;20.70;99.90;;;;;;5019377;28;20464;-62
2022/07/01 09:49:21;;;;;;;4.50;3.67;;;20.40;99.90;;;;;;5020253;28;20460;-62
2022/07/01 09:51:52;;;;;;;6.17;4.43;;;20.10;99.90;;;;;;5019593;28;20464;-62
2022/07/01 09:54:20;;;;;;;35.07;6.27;;;20.00;99.90;;;;;;5019359;28;20460;-62
2022/07/01 09:56:47;;;;;;;7.07;4.90;;;19.60;99.90;;;;;;5018654;28;20486;-62
2022/07/01 09:59:25;;;;;;;32.20;7.40;;;19.20;99.90;;;;;;5019142;28;20951;-62
2022/07/01 10:01:54;;;;;;;12.13;6.13;;;18.90;99.90;;;;;;5019104;28;20445;-62
2022/07/01 10:04:27;;;;;;;9.07;5.70;;;18.20;99.90;;;;;;5017716;28;20559;-62
2022/07/01 10:07:10;;;;;;;5.80;4.30;;;18.00;99.90;;;;;;5035081;28;20521;-62
2022/07/01 10:10:04;;;;;;;8.20;6.90;;;17.70;99.90;;;;;;5037238;28;20473;-62
2022/07/01 10:12:36;;;;;;;5.17;4.67;;;17.50;99.90;;;;;;5038238;28;20530;-62
2022/07/01 10:15:08;;;;;;;5.63;5.00;;;17.30;99.90;;;;;;5037772;28;20469;-61
2022/07/01 10:17:38;;;;;;;7.43;5.10;;;17.40;99.90;;;;;;5038322;28;20542;-62
2022/07/01 10:20:15;;;;;;;6.30;4.67;;;17.50;99.90;;;;;;5038569;28;20968;-62
2022/07/01 10:22:48;;;;;;;4.53;4.13;;;17.60;99.90;;;;;;5038421;28;20473;-62
2022/07/01 10:25:35;;;;;;;5.27;4.03;;;17.60;99.90;;;;;;5039065;28;20883;-63
2022/07/01 10:28:42;;;;;;;6.23;4.77;;;17.60;99.90;;;;;;5038286;28;20463;-63
2022/07/01 10:31:15;;;;;;;9.03;8.23;;;17.90;99.90;;;;;;4999734;28;20549;-62
2022/07/01 10:33:56;;;;;;;6.00;4.10;;;18.80;99.90;;;;;;5038250;28;20786;-63
2022/07/01 10:36:32;;;;;;;4.70;3.43;;;19.90;99.90;;;;;;5037646;28;20734;-62
2022/07/01 10:39:22;;;;;;;4.20;3.03;;;20.40;99.90;;;;;;5037593;28;20566;-62
2022/07/01 10:42:08;;;;;;;12.60;3.47;;;21.40;99.90;;;;;;5033698;28;20467;-62
2022/07/01 10:44:36;;;;;;;5.60;2.90;;;21.70;99.90;;;;;;5037612;28;20554;-63
2022/07/01 10:47:07;;;;;;;4.03;2.90;;;21.70;99.90;;;;;;5036474;28;20537;-63
2022/07/01 10:50:00;;;;;;;5.17;3.23;;;20.90;99.90;;;;;;5037754;28;20773;-63
2022/07/01 10:52:29;;;;;;;3.60;3.30;;;20.60;99.90;;;;;;5030791;28;20503;-62
2022/07/01 10:54:58;;;;;;;4.83;2.73;;;20.20;99.90;;;;;;5017963;28;20463;-63
2022/07/01 10:57:31;;;;;;;4.20;2.60;;;19.60;99.90;;;;;;5017722;28;20492;-63
2022/07/01 11:00:36;;;;;;;3.83;3.23;;;19.60;99.90;;;;;;5016708;28;20502;-63
2022/07/01 11:03:24;;;;;;;6.93;2.80;;;19.40;99.90;;;;;;5017336;28;20906;-62
2022/07/01 11:05:56;;;;;;;4.00;2.93;;;19.60;99.90;;;;;;5017491;28;20562;-63
2022/07/01 11:08:26;;;;;;;3.70;2.97;;;19.90;99.90;;;;;;5017107;28;20434;-63
2022/07/01 11:10:57;;;;;;;5.87;3.67;;;20.30;99.90;;;;;;5017104;28;20555;-62
2022/07/01 11:13:25;;;;;;;3.93;2.67;;;20.90;99.90;;;;;;5017740;28;20464;-62
2022/07/01 11:15:53;;;;;;;5.00;2.73;;;21.70;99.90;;;;;;5017641;28;20562;-63
2022/07/01 11:18:23;;;;;;;4.33;2.83;;;22.40;99.90;;;;;;5017502;28;20464;-62
2022/07/01 11:20:51;;;;;;;4.50;2.53;;;23.00;99.90;;;;;;5025113;28;20469;-63
2022/07/01 11:23:20;;;;;;;4.43;2.60;;;22.80;99.90;;;;;;5036803;28;20903;-63
2022/07/01 11:25:47;;;;;;;6.17;2.77;;;22.80;99.90;;;;;;5037796;28;20815;-62
2022/07/01 11:28:14;;;;;;;3.40;2.40;;;22.60;99.90;;;;;;5037219;28;20465;-63
2022/07/01 11:30:42;;;;;;;3.43;2.20;;;21.70;99.90;;;;;;5036979;28;20462;-62
2022/07/01 11:33:11;;;;;;;3.80;2.40;;;21.30;99.90;;;;;;5036184;28;20474;-63
2022/07/01 11:41:22;;;;;;;2.60;2.40;;;21.90;99.90;;;;;;5038668;28;20513;-62
2022/07/01 11:43:53;;;;;;;2.90;2.50;;;22.10;99.90;;;;;;5036853;28;20848;-62
2022/07/01 11:46:21;;;;;;;5.03;2.30;;;21.80;99.90;;;;;;5036664;28;20475;-62
2022/07/01 11:48:57;;;;;;;6.67;2.40;;;22.40;99.90;;;;;;5036799;28;20489;-61
2022/07/01 11:51:27;;;;;;;2.40;2.20;;;23.50;99.90;;;;;;5037251;28;20454;-62
2022/07/01 11:53:57;;;;;;;2.20;2.00;;;24.40;99.90;;;;;;5035694;28;20467;-62
2022/07/01 11:56:32;;;;;;;2.23;2.03;;;24.80;99.90;;;;;;5036153;28;20479;-62
2022/07/01 11:59:01;;;;;;;2.70;2.13;;;24.40;99.90;;;;;;5036833;28;20503;-61
2022/07/01 12:01:31;;;;;;;2.97;2.30;;;24.20;99.90;;;;;;5036642;28;20497;-61
2022/07/01 12:04:00;;;;;;;2.90;2.40;;;24.30;99.90;;;;;;5036321;28;20490;-61
2022/07/01 12:06:29;;;;;;;3.23;1.90;;;24.80;99.90;;;;;;5036648;28;20459;-62
2022/07/01 12:08:57;;;;;;;3.70;2.40;;;25.00;99.90;;;;;;5036835;28;20462;-62
2022/07/01 12:11:34;;;;;;;5.00;2.70;;;25.20;99.90;;;;;;5036991;28;20436;-61
2022/07/01 12:14:03;;;;;;;4.20;3.13;;;24.60;99.90;;;;;;5036753;28;20838;-61
2022/07/01 12:16:39;;;;;;;4.23;2.97;;;23.60;99.90;;;;;;5036705;28;20759;-61
2022/07/01 12:19:08;;;;;;;3.30;2.43;;;23.50;99.90;;;;;;5036927;28;20465;-61
2022/07/01 12:21:50;;;;;;;4.30;2.53;;;24.40;99.90;;;;;;5036797;28;20471;-61
2022/07/01 12:24:21;;;;;;;2.60;2.10;;;25.20;99.90;;;;;;5036668;28;20507;-61
2022/07/01 12:27:03;;;;;;;2.50;2.10;;;25.80;99.90;;;;;;5037217;28;20455;-61
2022/07/01 12:29:50;;;;;;;2.77;2.57;;;25.40;99.90;;;;;;5040609;28;20463;-61
2022/07/01 12:32:19;;;;;;;4.17;2.30;;;24.70;99.90;;;;;;5040492;28;20810;-61
2022/07/01 12:34:49;;;;;;;3.40;2.93;;;23.50;99.90;;;;;;5040894;28;20563;-61
2022/07/01 12:37:20;;;;;;;6.57;3.97;;;23.00;99.90;;;;;;5040997;28;20738;-61
2022/07/01 12:39:52;;;;;;;4.00;3.13;;;22.20;99.90;;;;;;5040563;28;20497;-61
2022/07/01 12:42:28;;;;;;;3.30;2.27;;;22.20;99.90;;;;;;5040198;28;20868;-61
2022/07/01 12:45:01;;;;;;;2.80;2.20;;;22.60;99.90;;;;;;5040615;28;20870;-60
2022/07/01 12:47:29;;;;;;;3.73;2.40;;;23.10;99.90;;;;;;5040429;28;20463;-61
2022/07/01 12:50:19;;;;;;;3.80;2.37;;;23.30;99.90;;;;;;5039896;28;20465;-60
2022/07/01 12:53:01;;;;;;;3.57;2.23;;;23.00;99.90;;;;;;5040426;28;20808;-61
2022/07/01 12:55:36;;;;;;;5.00;3.90;;;22.80;99.90;;;;;;5039767;28;20463;-61
2022/07/01 12:58:10;;;;;;;4.40;2.97;;;22.50;99.90;;;;;;5038764;28;20581;-61
2022/07/01 13:00:39;;;;;;;4.40;2.50;;;22.50;99.90;;;;;;5041958;28;20488;-61
2022/07/01 13:03:19;;;;;;;3.40;2.20;;;23.80;99.90;;;;;;5044626;28;20889;-63
2022/07/01 13:05:46;;;;;;;2.53;2.33;;;24.90;99.90;;;;;;5039876;28;20444;-62
2022/07/01 13:08:15;;;;;;;3.60;2.23;;;24.80;99.90;;;;;;5039870;28;20469;-62
2022/07/01 13:10:45;;;;;;;2.77;2.30;;;24.20;99.90;;;;;;5039986;28;20455;-62